sensor_id;sensor_type;location;lat;lon;timestamp;pressure;altitude;pressure_sealevel;temperature;humidity
10135;BME280;5107;48.850;8.924;2023-09-19T00:00:37;96427.34;;;17.02;84.31
10135;BME280;5107;48.850;8.924;2023-09-19T00:03:03;96427.41;;;16.96;84.72
10135;BME280;5107;48.850;8.924;2023-09-19T00:05:34;96435.22;;;16.91;85.88
10135;BME280;5107;48.850;8.924;2023-09-19T00:08:01;96437.50;;;16.87;86.35
10135;BME280;5107;48.850;8.924;2023-09-19T00:10:30;96441.41;;;16.85;86.85
10135;BME280;5107;48.850;8.924;2023-09-19T00:12:59;96449.00;;;16.81;86.64
10135;BME280;5107;48.850;8.924;2023-09-19T00:15:26;96450.03;;;16.80;86.83
10135;BME280;5107;48.850;8.924;2023-09-19T00:17:54;96443.09;;;16.79;86.66
10135;BME280;5107;48.850;8.924;2023-09-19T00:20:19;96450.84;;;16.81;86.99
10135;BME280;5107;48.850;8.924;2023-09-19T00:22:48;96447.59;;;16.79;86.55
10135;BME280;5107;48.850;8.924;2023-09-19T00:25:14;96444.94;;;16.79;86.59
10135;BME280;5107;48.850;8.924;2023-09-19T00:27:41;96450.03;;;16.80;86.67
10135;BME280;5107;48.850;8.924;2023-09-19T00:30:11;96447.38;;;16.80;86.38
10135;BME280;5107;48.850;8.924;2023-09-19T00:32:41;96450.59;;;16.82;86.27
10135;BME280;5107;48.850;8.924;2023-09-19T00:35:07;96457.34;;;16.85;85.55
10135;BME280;5107;48.850;8.924;2023-09-19T00:37:36;96451.81;;;16.86;85.27
10135;BME280;5107;48.850;8.924;2023-09-19T00:40:03;96461.84;;;16.84;85.65
10135;BME280;5107;48.850;8.924;2023-09-19T00:42:30;96467.97;;;16.85;85.05
10135;BME280;5107;48.850;8.924;2023-09-19T00:44:55;96465.53;;;16.83;85.47
10135;BME280;5107;48.850;8.924;2023-09-19T00:47:21;96467.63;;;16.81;86.01
10135;BME280;5107;48.850;8.924;2023-09-19T00:49:46;96460.66;;;16.80;85.72
10135;BME280;5107;48.850;8.924;2023-09-19T00:52:14;96461.91;;;16.78;85.82
10135;BME280;5107;48.850;8.924;2023-09-19T00:54:40;96464.75;;;16.76;86.05
10135;BME280;5107;48.850;8.924;2023-09-19T00:57:06;96464.56;;;16.78;86.04
10135;BME280;5107;48.850;8.924;2023-09-19T00:59:33;96462.72;;;16.78;85.45
10135;BME280;5107;48.850;8.924;2023-09-19T01:02:02;96462.50;;;16.80;85.75
10135;BME280;5107;48.850;8.924;2023-09-19T01:04:27;96462.72;;;16.78;85.73
10135;BME280;5107;48.850;8.924;2023-09-19T01:06:53;96472.13;;;16.74;85.87
10135;BME280;5107;48.850;8.924;2023-09-19T01:09:20;96472.78;;;16.69;86.04
10135;BME280;5107;48.850;8.924;2023-09-19T01:11:47;96480.81;;;16.63;86.67
10135;BME280;5107;48.850;8.924;2023-09-19T01:14:37;96485.50;;;16.61;86.66
10135;BME280;5107;48.850;8.924;2023-09-19T01:17:25;96483.84;;;16.60;86.55
10135;BME280;5107;48.850;8.924;2023-09-19T01:20:19;96488.34;;;16.59;86.35
10135;BME280;5107;48.850;8.924;2023-09-19T01:30:56;96502.44;;;16.60;86.12
10135;BME280;5107;48.850;8.924;2023-09-19T01:33:24;96491.81;;;16.60;85.55
10135;BME280;5107;48.850;8.924;2023-09-19T01:35:51;96492.66;;;16.54;85.97
10135;BME280;5107;48.850;8.924;2023-09-19T01:38:18;96497.16;;;16.53;86.15
10135;BME280;5107;48.850;8.924;2023-09-19T01:40:54;96503.09;;;16.49;86.20
10135;BME280;5107;48.850;8.924;2023-09-19T01:43:43;96499.66;;;16.42;86.94
10135;BME280;5107;48.850;8.924;2023-09-19T01:46:30;96505.81;;;16.36;87.52
10135;BME280;5107;48.850;8.924;2023-09-19T01:51:34;96510.34;;;16.28;88.25
10135;BME280;5107;48.850;8.924;2023-09-19T01:54:04;96513.22;;;16.27;88.00
10135;BME280;5107;48.850;8.924;2023-09-19T01:56:40;96520.97;;;16.28;88.08
10135;BME280;5107;48.850;8.924;2023-09-19T01:59:16;96523.03;;;16.26;87.91
10135;BME280;5107;48.850;8.924;2023-09-19T02:01:44;96521.00;;;16.22;88.04
10135;BME280;5107;48.850;8.924;2023-09-19T02:04:10;96527.13;;;16.22;88.26
10135;BME280;5107;48.850;8.924;2023-09-19T02:06:40;96514.88;;;16.21;87.93
10135;BME280;5107;48.850;8.924;2023-09-19T02:09:06;96529.34;;;16.25;87.60
10135;BME280;5107;48.850;8.924;2023-09-19T02:11:32;96525.28;;;16.23;87.70
10135;BME280;5107;48.850;8.924;2023-09-19T02:13:57;96521.41;;;16.19;87.82
10135;BME280;5107;48.850;8.924;2023-09-19T02:16:24;96522.63;;;16.16;87.63
10135;BME280;5107;48.850;8.924;2023-09-19T02:18:49;96523.25;;;16.18;88.08
10135;BME280;5107;48.850;8.924;2023-09-19T02:21:15;96534.91;;;16.17;88.02
10135;BME280;5107;48.850;8.924;2023-09-19T02:23:42;96533.06;;;16.18;88.23
10135;BME280;5107;48.850;8.924;2023-09-19T02:26:08;96532.03;;;16.19;88.02
10135;BME280;5107;48.850;8.924;2023-09-19T02:28:34;96523.88;;;16.20;88.06
10135;BME280;5107;48.850;8.924;2023-09-19T02:31:01;96539.78;;;16.27;87.70
10135;BME280;5107;48.850;8.924;2023-09-19T02:33:26;96540.19;;;16.24;87.90
10135;BME280;5107;48.850;8.924;2023-09-19T02:35:55;96541.81;;;16.25;87.98
10135;BME280;5107;48.850;8.924;2023-09-19T02:38:23;96534.28;;;16.22;88.06
10135;BME280;5107;48.850;8.924;2023-09-19T02:40:50;96543.44;;;16.26;88.11
10135;BME280;5107;48.850;8.924;2023-09-19T02:43:15;96545.09;;;16.27;87.93
10135;BME280;5107;48.850;8.924;2023-09-19T02:45:42;96547.13;;;16.31;87.78
10135;BME280;5107;48.850;8.924;2023-09-19T02:48:07;96540.75;;;16.32;87.66
10135;BME280;5107;48.850;8.924;2023-09-19T02:50:33;96548.75;;;16.26;87.63
10135;BME280;5107;48.850;8.924;2023-09-19T02:52:59;96554.09;;;16.19;88.17
10135;BME280;5107;48.850;8.924;2023-09-19T02:55:24;96551.06;;;16.09;88.79
10135;BME280;5107;48.850;8.924;2023-09-19T02:57:52;96556.56;;;16.14;89.01
10135;BME280;5107;48.850;8.924;2023-09-19T03:00:20;96555.75;;;16.14;88.98
10135;BME280;5107;48.850;8.924;2023-09-19T03:02:50;96561.88;;;16.14;89.04
10135;BME280;5107;48.850;8.924;2023-09-19T03:05:15;96558.59;;;16.12;89.53
10135;BME280;5107;48.850;8.924;2023-09-19T03:07:41;96563.31;;;16.10;89.45
10135;BME280;5107;48.850;8.924;2023-09-19T03:10:08;96551.66;;;16.11;89.65
10135;BME280;5107;48.850;8.924;2023-09-19T03:12:34;96567.38;;;16.19;90.18
10135;BME280;5107;48.850;8.924;2023-09-19T03:15:00;96567.56;;;16.24;90.43
10135;BME280;5107;48.850;8.924;2023-09-19T03:17:25;96572.66;;;16.26;90.84
10135;BME280;5107;48.850;8.924;2023-09-19T03:19:50;96572.88;;;16.31;89.85
10135;BME280;5107;48.850;8.924;2023-09-19T03:22:16;96583.06;;;16.34;90.52
10135;BME280;5107;48.850;8.924;2023-09-19T03:24:42;96572.41;;;16.41;90.24
10135;BME280;5107;48.850;8.924;2023-09-19T03:27:09;96583.47;;;16.38;90.98
10135;BME280;5107;48.850;8.924;2023-09-19T03:29:35;96583.25;;;16.32;91.60
10135;BME280;5107;48.850;8.924;2023-09-19T03:32:01;96574.69;;;16.24;91.78
10135;BME280;5107;48.850;8.924;2023-09-19T03:34:27;96575.75;;;16.16;93.02
10135;BME280;5107;48.850;8.924;2023-09-19T03:36:52;96570.03;;;16.13;93.91
10135;BME280;5107;48.850;8.924;2023-09-19T03:39:17;96575.53;;;16.18;94.12
10135;BME280;5107;48.850;8.924;2023-09-19T03:41:43;96579.78;;;16.32;93.42
10135;BME280;5107;48.850;8.924;2023-09-19T03:44:08;96578.75;;;16.40;92.70
10135;BME280;5107;48.850;8.924;2023-09-19T03:46:33;96574.47;;;16.39;92.46
10135;BME280;5107;48.850;8.924;2023-09-19T03:49:00;96572.03;;;16.37;92.34
10135;BME280;5107;48.850;8.924;2023-09-19T03:51:25;96576.09;;;16.40;92.32
10135;BME280;5107;48.850;8.924;2023-09-19T03:53:51;96573.66;;;16.38;92.31
10135;BME280;5107;48.850;8.924;2023-09-19T03:56:16;96575.50;;;16.38;92.64
10135;BME280;5107;48.850;8.924;2023-09-19T03:58:42;96568.38;;;16.31;92.50
10135;BME280;5107;48.850;8.924;2023-09-19T04:01:07;96561.63;;;16.29;92.58
10135;BME280;5107;48.850;8.924;2023-09-19T04:03:35;96566.75;;;16.30;92.65
10135;BME280;5107;48.850;8.924;2023-09-19T04:06:12;96564.66;;;16.32;92.48
10135;BME280;5107;48.850;8.924;2023-09-19T04:08:38;96566.94;;;16.29;92.50
10135;BME280;5107;48.850;8.924;2023-09-19T04:11:03;96577.75;;;16.34;93.02
10135;BME280;5107;48.850;8.924;2023-09-19T04:13:28;96571.44;;;16.28;93.67
10135;BME280;5107;48.850;8.924;2023-09-19T04:15:55;96570.81;;;16.26;94.08
10135;BME280;5107;48.850;8.924;2023-09-19T04:18:20;96581.41;;;16.40;93.19
10135;BME280;5107;48.850;8.924;2023-09-19T04:20:50;96578.59;;;16.28;94.10
10135;BME280;5107;48.850;8.924;2023-09-19T04:23:16;96582.41;;;16.45;93.70
10135;BME280;5107;48.850;8.924;2023-09-19T04:25:42;96583.00;;;16.54;91.96
10135;BME280;5107;48.850;8.924;2023-09-19T04:28:07;96586.28;;;16.56;91.25
10135;BME280;5107;48.850;8.924;2023-09-19T04:30:33;96586.84;;;16.58;91.37
10135;BME280;5107;48.850;8.924;2023-09-19T04:32:58;96586.28;;;16.56;92.39
10135;BME280;5107;48.850;8.924;2023-09-19T04:35:24;96593.63;;;16.54;92.54
10135;BME280;5107;48.850;8.924;2023-09-19T04:37:50;96593.28;;;16.30;94.21
10135;BME280;5107;48.850;8.924;2023-09-19T04:40:16;96593.50;;;16.16;95.87
10135;BME280;5107;48.850;8.924;2023-09-19T04:42:43;96590.91;;;15.96;96.63
10135;BME280;5107;48.850;8.924;2023-09-19T04:45:09;96596.44;;;15.88;97.39
10135;BME280;5107;48.850;8.924;2023-09-19T04:47:38;96598.69;;;15.78;97.84
10135;BME280;5107;48.850;8.924;2023-09-19T04:50:13;96603.78;;;15.79;97.81
10135;BME280;5107;48.850;8.924;2023-09-19T04:52:44;96613.56;;;15.79;97.46
10135;BME280;5107;48.850;8.924;2023-09-19T04:55:13;96620.09;;;15.83;97.82
10135;BME280;5107;48.850;8.924;2023-09-19T04:57:45;96629.69;;;15.84;97.51
10135;BME280;5107;48.850;8.924;2023-09-19T05:00:21;96632.78;;;15.81;97.98
10135;BME280;5107;48.850;8.924;2023-09-19T05:02:50;96632.34;;;15.77;97.60
10135;BME280;5107;48.850;8.924;2023-09-19T05:05:17;96640.94;;;15.79;97.80
10135;BME280;5107;48.850;8.924;2023-09-19T05:07:43;96638.28;;;15.79;97.80
10135;BME280;5107;48.850;8.924;2023-09-19T05:10:09;96632.56;;;15.76;97.62
10135;BME280;5107;48.850;8.924;2023-09-19T05:12:35;96638.06;;;15.74;97.95
10135;BME280;5107;48.850;8.924;2023-09-19T05:15:05;96641.53;;;15.62;96.85
10135;BME280;5107;48.850;8.924;2023-09-19T05:17:32;96641.94;;;15.65;97.54
10135;BME280;5107;48.850;8.924;2023-09-19T05:19:58;96652.56;;;15.72;97.60
10135;BME280;5107;48.850;8.924;2023-09-19T05:22:26;96654.41;;;15.65;96.16
10135;BME280;5107;48.850;8.924;2023-09-19T05:24:51;96654.41;;;15.65;96.37
10135;BME280;5107;48.850;8.924;2023-09-19T05:27:18;96660.72;;;15.64;96.28
10135;BME280;5107;48.850;8.924;2023-09-19T05:29:44;96662.56;;;15.63;96.67
10135;BME280;5107;48.850;8.924;2023-09-19T05:32:10;96661.94;;;15.68;96.96
10135;BME280;5107;48.850;8.924;2023-09-19T05:34:35;96671.34;;;15.70;96.60
10135;BME280;5107;48.850;8.924;2023-09-19T05:37:01;96670.72;;;15.75;96.29
10135;BME280;5107;48.850;8.924;2023-09-19T05:39:27;96672.34;;;15.63;96.22
10135;BME280;5107;48.850;8.924;2023-09-19T05:41:52;96681.13;;;15.57;96.61
10135;BME280;5107;48.850;8.924;2023-09-19T05:44:17;96688.03;;;15.57;96.83
10135;BME280;5107;48.850;8.924;2023-09-19T05:46:42;96686.00;;;15.60;96.96
10135;BME280;5107;48.850;8.924;2023-09-19T05:49:08;96695.75;;;15.52;95.79
10135;BME280;5107;48.850;8.924;2023-09-19T05:51:33;96696.56;;;15.46;95.88
10135;BME280;5107;48.850;8.924;2023-09-19T05:53:59;96692.94;;;15.54;95.70
10135;BME280;5107;48.850;8.924;2023-09-19T05:56:25;96702.72;;;15.53;93.65
10135;BME280;5107;48.850;8.924;2023-09-19T05:58:50;96703.09;;;15.44;93.08
10135;BME280;5107;48.850;8.924;2023-09-19T06:01:18;96704.72;;;15.45;93.33
10135;BME280;5107;48.850;8.924;2023-09-19T06:03:44;96694.50;;;15.42;92.24
10135;BME280;5107;48.850;8.924;2023-09-19T06:06:09;96702.66;;;15.40;92.05
10135;BME280;5107;48.850;8.924;2023-09-19T06:08:35;96707.56;;;15.43;92.08
10135;BME280;5107;48.850;8.924;2023-09-19T06:11:00;96715.81;;;15.55;92.74
10135;BME280;5107;48.850;8.924;2023-09-19T06:13:28;96706.84;;;15.63;91.94
10135;BME280;5107;48.850;8.924;2023-09-19T06:15:57;96720.28;;;15.61;91.21
10135;BME280;5107;48.850;8.924;2023-09-19T06:18:23;96714.53;;;15.51;90.19
10135;BME280;5107;48.850;8.924;2023-09-19T06:20:54;96718.25;;;15.57;90.33
10135;BME280;5107;48.850;8.924;2023-09-19T06:23:21;96721.50;;;15.65;90.47
10135;BME280;5107;48.850;8.924;2023-09-19T06:25:46;96723.00;;;15.81;89.59
10135;BME280;5107;48.850;8.924;2023-09-19T06:28:11;96719.13;;;15.90;87.98
10135;BME280;5107;48.850;8.924;2023-09-19T06:30:42;96714.44;;;16.18;87.17
10135;BME280;5107;48.850;8.924;2023-09-19T06:33:07;96719.75;;;16.31;86.14
10135;BME280;5107;48.850;8.924;2023-09-19T06:35:34;96715.03;;;16.27;84.97
10135;BME280;5107;48.850;8.924;2023-09-19T06:38:02;96717.50;;;16.22;84.82
10135;BME280;5107;48.850;8.924;2023-09-19T06:40:28;96717.69;;;16.20;85.25
10135;BME280;5107;48.850;8.924;2023-09-19T06:42:56;96717.09;;;16.38;85.97
10135;BME280;5107;48.850;8.924;2023-09-19T06:45:22;96712.59;;;16.65;85.05
10135;BME280;5107;48.850;8.924;2023-09-19T06:47:50;96720.34;;;16.73;83.32
10135;BME280;5107;48.850;8.924;2023-09-19T06:50:25;96728.53;;;16.65;83.15
10135;BME280;5107;48.850;8.924;2023-09-19T06:52:52;96736.88;;;16.75;84.84
10135;BME280;5107;48.850;8.924;2023-09-19T06:55:19;96743.03;;;16.56;84.56
10135;BME280;5107;48.850;8.924;2023-09-19T06:57:48;96746.06;;;16.66;85.12
10135;BME280;5107;48.850;8.924;2023-09-19T07:00:14;96746.69;;;16.68;84.43
10135;BME280;5107;48.850;8.924;2023-09-19T07:02:59;96749.34;;;16.55;83.95
10135;BME280;5107;48.850;8.924;2023-09-19T07:05:30;96750.78;;;16.51;84.22
10135;BME280;5107;48.850;8.924;2023-09-19T07:07:59;96760.41;;;16.65;84.44
10135;BME280;5107;48.850;8.924;2023-09-19T07:10:25;96760.41;;;16.65;84.51
10135;BME280;5107;48.850;8.924;2023-09-19T07:13:09;96765.09;;;16.76;83.61
10135;BME280;5107;48.850;8.924;2023-09-19T07:15:35;96774.69;;;16.90;83.88
10135;BME280;5107;48.850;8.924;2023-09-19T07:18:04;96777.53;;;16.95;82.98
10135;BME280;5107;48.850;8.924;2023-09-19T07:20:31;96770.53;;;17.14;82.80
10135;BME280;5107;48.850;8.924;2023-09-19T07:23:00;96773.81;;;17.10;81.04
10135;BME280;5107;48.850;8.924;2023-09-19T07:25:26;96772.63;;;16.92;81.50
10135;BME280;5107;48.850;8.924;2023-09-19T07:27:52;96776.91;;;16.93;82.02
10135;BME280;5107;48.850;8.924;2023-09-19T07:30:17;96779.09;;;17.16;82.66
10135;BME280;5107;48.850;8.924;2023-09-19T07:32:42;96778.25;;;17.29;81.82
10135;BME280;5107;48.850;8.924;2023-09-19T07:35:08;96787.06;;;17.16;81.40
10135;BME280;5107;48.850;8.924;2023-09-19T07:37:34;96778.47;;;17.21;81.78
10135;BME280;5107;48.850;8.924;2023-09-19T07:40:03;96792.63;;;17.15;80.89
10135;BME280;5107;48.850;8.924;2023-09-19T07:42:33;96795.41;;;17.33;81.41
10135;BME280;5107;48.850;8.924;2023-09-19T07:45:00;96784.53;;;17.41;79.96
10135;BME280;5107;48.850;8.924;2023-09-19T07:47:25;96794.13;;;17.55;81.29
10135;BME280;5107;48.850;8.924;2023-09-19T07:49:51;96785.38;;;17.86;80.29
10135;BME280;5107;48.850;8.924;2023-09-19T07:52:16;96788.88;;;18.18;78.41
10135;BME280;5107;48.850;8.924;2023-09-19T07:54:42;96791.94;;;18.22;78.04
10135;BME280;5107;48.850;8.924;2023-09-19T07:57:10;96801.72;;;18.52;75.80
10135;BME280;5107;48.850;8.924;2023-09-19T07:59:36;96807.72;;;18.48;75.99
10135;BME280;5107;48.850;8.924;2023-09-19T08:02:01;96807.53;;;18.43;75.97
10135;BME280;5107;48.850;8.924;2023-09-19T08:04:29;96804.94;;;18.36;75.64
10135;BME280;5107;48.850;8.924;2023-09-19T08:06:58;96809.50;;;18.29;74.94
10135;BME280;5107;48.850;8.924;2023-09-19T08:09:24;96804.75;;;18.06;75.37
10135;BME280;5107;48.850;8.924;2023-09-19T08:11:49;96818.25;;;18.05;77.08
10135;BME280;5107;48.850;8.924;2023-09-19T08:14:15;96809.16;;;18.19;76.68
10135;BME280;5107;48.850;8.924;2023-09-19T08:16:41;96815.16;;;18.39;76.53
10135;BME280;5107;48.850;8.924;2023-09-19T08:19:09;96812.69;;;18.69;74.40
10135;BME280;5107;48.850;8.924;2023-09-19T08:21:35;96815.81;;;18.91;73.58
10135;BME280;5107;48.850;8.924;2023-09-19T08:24:01;96819.59;;;18.77;73.20
10135;BME280;5107;48.850;8.924;2023-09-19T08:26:29;96817.44;;;18.67;72.72
10135;BME280;5107;48.850;8.924;2023-09-19T08:28:55;96816.59;;;18.91;72.57
10135;BME280;5107;48.850;8.924;2023-09-19T08:31:21;96822.16;;;18.90;73.84
10135;BME280;5107;48.850;8.924;2023-09-19T08:33:48;96824.34;;;19.18;73.63
10135;BME280;5107;48.850;8.924;2023-09-19T08:36:14;96819.09;;;19.11;72.61
10135;BME280;5107;48.850;8.924;2023-09-19T08:38:40;96820.56;;;19.25;71.95
10135;BME280;5107;48.850;8.924;2023-09-19T08:41:07;96830.50;;;19.18;72.00
10135;BME280;5107;48.850;8.924;2023-09-19T08:43:32;96821.72;;;18.93;70.42
10135;BME280;5107;48.850;8.924;2023-09-19T08:46:09;96828.66;;;19.19;69.48
10135;BME280;5107;48.850;8.924;2023-09-19T08:48:39;96826.28;;;19.29;68.15
10135;BME280;5107;48.850;8.924;2023-09-19T08:51:11;96828.44;;;19.20;68.11
10135;BME280;5107;48.850;8.924;2023-09-19T08:56:26;96833.25;;;19.30;65.85
10135;BME280;5107;48.850;8.924;2023-09-19T08:58:57;96841.47;;;18.85;65.17
10135;BME280;5107;48.850;8.924;2023-09-19T09:01:27;96834.09;;;18.87;66.95
10135;BME280;5107;48.850;8.924;2023-09-19T09:03:54;96832.00;;;19.32;66.58
10135;BME280;5107;48.850;8.924;2023-09-19T09:06:23;96837.41;;;19.08;64.65
10135;BME280;5107;48.850;8.924;2023-09-19T09:08:50;96847.72;;;19.22;64.14
10135;BME280;5107;48.850;8.924;2023-09-19T09:11:16;96839.28;;;19.01;65.05
10135;BME280;5107;48.850;8.924;2023-09-19T09:13:43;96839.88;;;19.46;64.25
10135;BME280;5107;48.850;8.924;2023-09-19T09:16:10;96838.16;;;19.33;61.98
10135;BME280;5107;48.850;8.924;2023-09-19T09:18:36;96838.44;;;19.07;64.46
10135;BME280;5107;48.850;8.924;2023-09-19T09:21:01;96848.09;;;19.44;64.87
10135;BME280;5107;48.850;8.924;2023-09-19T09:23:27;96853.63;;;19.49;64.49
10135;BME280;5107;48.850;8.924;2023-09-19T09:25:55;96841.88;;;19.68;63.64
10135;BME280;5107;48.850;8.924;2023-09-19T09:28:27;96845.84;;;20.14;62.06
10135;BME280;5107;48.850;8.924;2023-09-19T09:30:54;96843.72;;;20.88;61.58
10135;BME280;5107;48.850;8.924;2023-09-19T09:33:20;96835.31;;;20.84;57.40
10135;BME280;5107;48.850;8.924;2023-09-19T09:38:26;96840.47;;;20.44;55.93
10135;BME280;5107;48.850;8.924;2023-09-19T09:40:59;96843.72;;;19.86;58.82
10135;BME280;5107;48.850;8.924;2023-09-19T09:43:34;96846.56;;;19.73;61.24
10135;BME280;5107;48.850;8.924;2023-09-19T09:46:18;96834.84;;;19.56;60.69
10135;BME280;5107;48.850;8.924;2023-09-19T09:48:48;96839.50;;;20.08;60.51
10135;BME280;5107;48.850;8.924;2023-09-19T09:51:42;96834.47;;;20.00;58.85
10135;BME280;5107;48.850;8.924;2023-09-19T09:54:18;96831.19;;;19.87;58.74
10135;BME280;5107;48.850;8.924;2023-09-19T09:59:20;96837.63;;;19.06;58.67
10135;BME280;5107;48.850;8.924;2023-09-19T10:01:49;96830.31;;;18.95;60.48
10135;BME280;5107;48.850;8.924;2023-09-19T10:04:27;96826.81;;;19.38;60.04
10135;BME280;5107;48.850;8.924;2023-09-19T10:07:02;96832.53;;;19.41;59.56
10135;BME280;5107;48.850;8.924;2023-09-19T10:09:30;96827.88;;;20.03;57.81
10135;BME280;5107;48.850;8.924;2023-09-19T10:12:10;96827.47;;;20.48;55.30
10135;BME280;5107;48.850;8.924;2023-09-19T10:14:38;96828.56;;;20.58;55.18
10135;BME280;5107;48.850;8.924;2023-09-19T10:17:09;96828.84;;;20.92;54.03
10135;BME280;5107;48.850;8.924;2023-09-19T10:19:40;96814.41;;;21.04;53.32
10135;BME280;5107;48.850;8.924;2023-09-19T10:22:10;96822.19;;;20.82;52.25
10135;BME280;5107;48.850;8.924;2023-09-19T10:24:38;96819.84;;;21.44;52.33
10135;BME280;5107;48.850;8.924;2023-09-19T10:27:06;96815.63;;;21.60;51.93
10135;BME280;5107;48.850;8.924;2023-09-19T10:29:34;96813.31;;;21.64;52.01
10135;BME280;5107;48.850;8.924;2023-09-19T10:32:03;96813.00;;;21.88;51.43
10135;BME280;5107;48.850;8.924;2023-09-19T10:34:34;96819.47;;;22.32;50.63
10135;BME280;5107;48.850;8.924;2023-09-19T10:37:02;96817.63;;;22.50;47.97
10135;BME280;5107;48.850;8.924;2023-09-19T10:39:31;96811.44;;;22.32;48.81
10135;BME280;5107;48.850;8.924;2023-09-19T10:42:02;96825.50;;;22.40;49.38
10135;BME280;5107;48.850;8.924;2023-09-19T10:44:32;96834.41;;;21.48;49.69
10135;BME280;5107;48.850;8.924;2023-09-19T10:46:58;96824.53;;;21.14;51.03
10135;BME280;5107;48.850;8.924;2023-09-19T10:49:24;96831.41;;;21.33;51.45
10135;BME280;5107;48.850;8.924;2023-09-19T10:51:56;96835.66;;;20.76;51.91
10135;BME280;5107;48.850;8.924;2023-09-19T10:54:30;96826.84;;;20.99;52.02
10135;BME280;5107;48.850;8.924;2023-09-19T10:56:59;96833.72;;;20.83;52.68
10135;BME280;5107;48.850;8.924;2023-09-19T10:59:25;96838.63;;;20.44;53.36
10135;BME280;5107;48.850;8.924;2023-09-19T11:02:00;96830.31;;;20.64;53.28
10135;BME280;5107;48.850;8.924;2023-09-19T11:04:40;96832.56;;;20.37;55.95
10135;BME280;5107;48.850;8.924;2023-09-19T11:07:12;96838.50;;;21.16;57.10
10135;BME280;5107;48.850;8.924;2023-09-19T11:09:53;96831.59;;;21.67;55.34
10135;BME280;5107;48.850;8.924;2023-09-19T11:14:57;96835.63;;;22.66;53.78
10135;BME280;5107;48.850;8.924;2023-09-19T11:30:44;96818.56;;;22.89;51.77
10135;BME280;5107;48.850;8.924;2023-09-19T11:33:19;96810.28;;;22.90;50.81
10135;BME280;5107;48.850;8.924;2023-09-19T11:36:14;96810.66;;;22.49;51.22
10135;BME280;5107;48.850;8.924;2023-09-19T11:46:30;96807.50;;;24.06;48.16
10135;BME280;5107;48.850;8.924;2023-09-19T11:49:07;96802.09;;;23.79;47.53
10135;BME280;5107;48.850;8.924;2023-09-19T11:51:41;96800.09;;;23.91;46.00
10135;BME280;5107;48.850;8.924;2023-09-19T11:54:10;96796.72;;;23.79;44.07
10135;BME280;5107;48.850;8.924;2023-09-19T11:56:52;96799.91;;;22.04;46.96
10135;BME280;5107;48.850;8.924;2023-09-19T11:59:28;96794.38;;;22.10;46.97
10135;BME280;5107;48.850;8.924;2023-09-19T12:02:01;96793.75;;;22.20;47.86
10135;BME280;5107;48.850;8.924;2023-09-19T12:04:35;96780.31;;;22.48;46.15
10135;BME280;5107;48.850;8.924;2023-09-19T12:07:04;96788.50;;;23.25;43.77
10135;BME280;5107;48.850;8.924;2023-09-19T12:09:29;96782.81;;;22.21;45.88
10135;BME280;5107;48.850;8.924;2023-09-19T12:11:55;96778.88;;;22.12;45.95
10135;BME280;5107;48.850;8.924;2023-09-19T12:14:24;96782.41;;;22.29;46.79
10135;BME280;5107;48.850;8.924;2023-09-19T12:16:54;96780.97;;;23.05;45.23
10135;BME280;5107;48.850;8.924;2023-09-19T12:19:21;96774.00;;;23.26;45.76
10135;BME280;5107;48.850;8.924;2023-09-19T12:22:03;96774.06;;;23.10;44.91
10135;BME280;5107;48.850;8.924;2023-09-19T12:24:32;96772.00;;;23.17;43.33
10135;BME280;5107;48.850;8.924;2023-09-19T12:27:03;96770.66;;;22.97;43.57
10135;BME280;5107;48.850;8.924;2023-09-19T12:29:31;96765.75;;;22.94;43.97
10135;BME280;5107;48.850;8.924;2023-09-19T12:31:58;96766.34;;;22.63;44.55
10135;BME280;5107;48.850;8.924;2023-09-19T12:34:25;96756.34;;;22.92;45.37
10135;BME280;5107;48.850;8.924;2023-09-19T12:37:13;96764.69;;;22.95;44.75
10135;BME280;5107;48.850;8.924;2023-09-19T12:39:46;96762.59;;;22.64;45.64
10135;BME280;5107;48.850;8.924;2023-09-19T12:42:17;96760.13;;;23.13;45.22
10135;BME280;5107;48.850;8.924;2023-09-19T12:44:45;96749.56;;;23.28;43.13
10135;BME280;5107;48.850;8.924;2023-09-19T12:47:16;96754.88;;;23.23;44.80
10135;BME280;5107;48.850;8.924;2023-09-19T12:50:14;96753.97;;;23.34;43.75
10135;BME280;5107;48.850;8.924;2023-09-19T12:52:48;96744.03;;;23.34;43.98
10135;BME280;5107;48.850;8.924;2023-09-19T12:55:24;96747.75;;;23.77;44.05
10135;BME280;5107;48.850;8.924;2023-09-19T12:58:09;96734.22;;;23.94;42.41
10135;BME280;5107;48.850;8.924;2023-09-19T13:00:44;96738.84;;;23.71;43.16
10135;BME280;5107;48.850;8.924;2023-09-19T13:03:16;96745.53;;;23.69;44.28
10135;BME280;5107;48.850;8.924;2023-09-19T13:05:56;96743.28;;;23.17;43.48
10135;BME280;5107;48.850;8.924;2023-09-19T13:08:29;96744.03;;;22.96;44.30
10135;BME280;5107;48.850;8.924;2023-09-19T13:11:16;96741.69;;;22.66;44.19
10135;BME280;5107;48.850;8.924;2023-09-19T13:14:13;96751.38;;;22.33;45.42
10135;BME280;5107;48.850;8.924;2023-09-19T13:16:56;96736.53;;;22.76;44.16
10135;BME280;5107;48.850;8.924;2023-09-19T13:19:38;96739.16;;;23.31;44.53
10135;BME280;5107;48.850;8.924;2023-09-19T13:22:50;96740.50;;;23.77;43.32
10135;BME280;5107;48.850;8.924;2023-09-19T13:24:51;96732.38;;;24.21;42.62
10135;BME280;5107;48.850;8.924;2023-09-19T13:27:17;96733.13;;;23.90;42.31
10135;BME280;5107;48.850;8.924;2023-09-19T13:29:42;96735.66;;;23.31;43.92
10135;BME280;5107;48.850;8.924;2023-09-19T13:32:07;96736.50;;;24.02;44.44
10135;BME280;5107;48.850;8.924;2023-09-19T13:34:36;96728.22;;;24.35;42.95
10135;BME280;5107;48.850;8.924;2023-09-19T13:37:03;96721.81;;;24.46;40.85
10135;BME280;5107;48.850;8.924;2023-09-19T13:39:29;96727.31;;;23.11;43.67
10135;BME280;5107;48.850;8.924;2023-09-19T13:41:55;96721.94;;;23.11;44.70
10135;BME280;5107;48.850;8.924;2023-09-19T13:44:20;96724.56;;;23.27;44.82
10135;BME280;5107;48.850;8.924;2023-09-19T13:46:45;96732.34;;;23.67;43.96
10135;BME280;5107;48.850;8.924;2023-09-19T13:49:11;96721.72;;;23.56;44.34
10135;BME280;5107;48.850;8.924;2023-09-19T13:51:36;96722.22;;;23.31;45.20
10135;BME280;5107;48.850;8.924;2023-09-19T13:54:02;96721.03;;;23.22;45.54
10135;BME280;5107;48.850;8.924;2023-09-19T13:56:27;96721.78;;;22.79;45.71
10135;BME280;5107;48.850;8.924;2023-09-19T13:58:54;96718.00;;;22.96;45.81
10135;BME280;5107;48.850;8.924;2023-09-19T14:01:19;96712.94;;;23.43;44.28